Decoded Metar for KBLF (BLUEFIELD in WV, USA) (IATA:BLF) | Meteo·Mobile Aviation Weather
aviador You're here:

KBLF Decoded Metar

BLUEFIELD in WV, USA
Report Time2019-07-23 07:25:00
UTC Time2019-07-23 07:32:49
Flight Rules mvfr MVFR
Wind040° at 03 kt
W.Decomp.*RWY 05: 3.0 kt HW 0.2 kt LCW
Visibility9999 m
Phenomena:Light Rain
Clouds:Overcast 016 Hf
Expected CloudBase > 400 ft AGL from Temp-Dew spread
Ceiling1,600 ft
Temp16°C (ISA +7)
Dew Point15°C (94% RH)
QNH1016 hPa
Density Alt3,786 ft
Elevation2,864 ft
Report Wrong Elevation
Raw Report
KBLF 230725Z AUTO 04003KT 9SM -RA OVC016 16/15 A3001 RMK AO2 P0003
T01560150=

Extra information for KBLF:More info

Metar Taf Metar & Taf Last 4 Metars F.Rules Stats Wind Profile Meteogram Temp Stats Airport Information Weather charts Add Link Nearby VenuesMetar ALERT Operation Metar Decoded Social comments

AIRNAV info for KBLF